sensor_id;sensor_type;location;lat;lon;timestamp;pressure;altitude;pressure_sealevel;temperature;humidity
3844;BME280;1937;51.444;6.484;2023-04-28T00:00:51;66975.22;;;9.99;67.03
3844;BME280;1937;51.444;6.484;2023-04-28T00:03:19;66944.31;;;9.95;67.97
3844;BME280;1937;51.444;6.484;2023-04-28T00:05:46;67032.09;;;10.02;67.32
3844;BME280;1937;51.444;6.484;2023-04-28T00:08:13;66983.50;;;10.00;68.14
3844;BME280;1937;51.444;6.484;2023-04-28T00:10:40;66984.50;;;10.12;67.27
3844;BME280;1937;51.444;6.484;2023-04-28T00:13:07;66982.16;;;10.05;67.54
3844;BME280;1937;51.444;6.484;2023-04-28T00:15:34;66973.28;;;10.04;68.72
3844;BME280;1937;51.444;6.484;2023-04-28T00:18:00;67004.38;;;10.02;69.39
3844;BME280;1937;51.444;6.484;2023-04-28T00:20:28;67012.72;;;10.07;69.71
3844;BME280;1937;51.444;6.484;2023-04-28T00:22:55;67001.88;;;10.07;69.94
3844;BME280;1937;51.444;6.484;2023-04-28T00:25:22;66999.81;;;10.03;70.18
3844;BME280;1937;51.444;6.484;2023-04-28T00:27:48;67015.91;;;9.88;71.89
3844;BME280;1937;51.444;6.484;2023-04-28T00:30:15;67011.16;;;9.95;72.83
3844;BME280;1937;51.444;6.484;2023-04-28T00:32:42;67002.84;;;9.94;73.51
3844;BME280;1937;51.444;6.484;2023-04-28T00:35:09;67028.94;;;10.01;74.81
3844;BME280;1937;51.444;6.484;2023-04-28T00:37:37;67030.03;;;9.98;75.04
3844;BME280;1937;51.444;6.484;2023-04-28T00:40:05;67048.88;;;9.96;75.41
3844;BME280;1937;51.444;6.484;2023-04-28T00:42:32;67037.44;;;9.95;76.72
3844;BME280;1937;51.444;6.484;2023-04-28T00:44:59;67034.22;;;9.90;78.17
3844;BME280;1937;51.444;6.484;2023-04-28T00:47:30;67016.41;;;10.04;78.36
3844;BME280;1937;51.444;6.484;2023-04-28T00:49:57;67011.84;;;9.84;79.28
3844;BME280;1937;51.444;6.484;2023-04-28T00:52:24;66996.19;;;9.66;81.18
3844;BME280;1937;51.444;6.484;2023-04-28T00:54:52;67051.75;;;9.58;82.37
3844;BME280;1937;51.444;6.484;2023-04-28T00:57:19;67053.56;;;9.64;83.00
3844;BME280;1937;51.444;6.484;2023-04-28T00:59:46;67070.78;;;9.70;83.77
3844;BME280;1937;51.444;6.484;2023-04-28T01:02:13;67018.81;;;9.70;82.76
3844;BME280;1937;51.444;6.484;2023-04-28T01:04:42;67051.13;;;9.73;81.41
3844;BME280;1937;51.444;6.484;2023-04-28T01:07:09;67026.94;;;9.61;81.30
3844;BME280;1937;51.444;6.484;2023-04-28T01:09:36;67035.63;;;9.49;81.71
3844;BME280;1937;51.444;6.484;2023-04-28T01:12:04;67022.84;;;9.53;82.62
3844;BME280;1937;51.444;6.484;2023-04-28T01:14:32;67055.72;;;9.57;82.84
3844;BME280;1937;51.444;6.484;2023-04-28T01:16:59;67046.69;;;9.63;83.88
3844;BME280;1937;51.444;6.484;2023-04-28T01:19:26;67091.19;;;9.61;84.94
3844;BME280;1937;51.444;6.484;2023-04-28T01:21:54;67074.28;;;9.58;85.50
3844;BME280;1937;51.444;6.484;2023-04-28T01:24:22;67076.41;;;9.66;85.02
3844;BME280;1937;51.444;6.484;2023-04-28T01:26:48;67084.06;;;9.62;83.72
3844;BME280;1937;51.444;6.484;2023-04-28T01:29:15;67060.19;;;9.32;85.59
3844;BME280;1937;51.444;6.484;2023-04-28T01:31:42;67023.53;;;9.22;86.65
3844;BME280;1937;51.444;6.484;2023-04-28T01:34:08;67053.75;;;9.22;86.62
3844;BME280;1937;51.444;6.484;2023-04-28T01:36:35;67070.16;;;9.29;86.48
3844;BME280;1937;51.444;6.484;2023-04-28T01:39:02;67075.13;;;9.20;88.06
3844;BME280;1937;51.444;6.484;2023-04-28T01:41:30;67046.13;;;9.26;87.92
3844;BME280;1937;51.444;6.484;2023-04-28T01:43:58;67056.84;;;9.18;88.85
3844;BME280;1937;51.444;6.484;2023-04-28T01:46:25;67089.19;;;9.26;87.88
3844;BME280;1937;51.444;6.484;2023-04-28T01:48:52;67079.25;;;9.28;87.63
3844;BME280;1937;51.444;6.484;2023-04-28T01:51:19;67059.78;;;9.25;88.32
3844;BME280;1937;51.444;6.484;2023-04-28T01:53:45;67062.91;;;9.05;89.18
3844;BME280;1937;51.444;6.484;2023-04-28T01:56:32;67064.13;;;9.11;90.63
3844;BME280;1937;51.444;6.484;2023-04-28T01:59:16;67058.28;;;9.01;93.45
3844;BME280;1937;51.444;6.484;2023-04-28T02:01:44;67084.44;;;9.13;93.95
3844;BME280;1937;51.444;6.484;2023-04-28T02:04:10;67122.50;;;9.21;93.12
3844;BME280;1937;51.444;6.484;2023-04-28T02:06:37;67141.13;;;9.26;93.32
3844;BME280;1937;51.444;6.484;2023-04-28T02:09:04;67162.09;;;9.33;92.74
3844;BME280;1937;51.444;6.484;2023-04-28T02:11:32;67147.41;;;9.43;93.03
3844;BME280;1937;51.444;6.484;2023-04-28T02:13:58;67194.66;;;9.51;92.72
3844;BME280;1937;51.444;6.484;2023-04-28T02:16:25;67161.00;;;9.37;94.45
3844;BME280;1937;51.444;6.484;2023-04-28T02:18:52;67183.81;;;9.34;94.60
3844;BME280;1937;51.444;6.484;2023-04-28T02:21:18;67139.41;;;9.25;94.84
3844;BME280;1937;51.444;6.484;2023-04-28T02:23:45;67176.03;;;9.30;94.21
3844;BME280;1937;51.444;6.484;2023-04-28T02:26:12;67175.19;;;9.31;94.33
3844;BME280;1937;51.444;6.484;2023-04-28T02:28:40;67163.19;;;9.30;94.43
3844;BME280;1937;51.444;6.484;2023-04-28T02:31:08;67166.75;;;9.22;95.99
3844;BME280;1937;51.444;6.484;2023-04-28T02:33:35;67236.25;;;9.47;94.77
3844;BME280;1937;51.444;6.484;2023-04-28T02:36:03;67218.75;;;9.42;94.41
3844;BME280;1937;51.444;6.484;2023-04-28T02:38:29;67229.81;;;9.36;95.10
3844;BME280;1937;51.444;6.484;2023-04-28T02:40:57;67205.00;;;9.39;94.64
3844;BME280;1937;51.444;6.484;2023-04-28T02:43:24;67209.06;;;9.43;94.78
3844;BME280;1937;51.444;6.484;2023-04-28T02:45:52;67242.97;;;9.55;94.28
3844;BME280;1937;51.444;6.484;2023-04-28T02:48:19;67221.84;;;9.38;93.93
3844;BME280;1937;51.444;6.484;2023-04-28T02:50:46;67243.53;;;9.39;94.12
3844;BME280;1937;51.444;6.484;2023-04-28T02:53:13;67248.03;;;9.50;94.05
3844;BME280;1937;51.444;6.484;2023-04-28T02:55:39;67242.13;;;9.40;93.77
3844;BME280;1937;51.444;6.484;2023-04-28T02:58:06;67193.41;;;9.45;92.91
3844;BME280;1937;51.444;6.484;2023-04-28T03:00:33;67203.59;;;9.40;93.69
3844;BME280;1937;51.444;6.484;2023-04-28T03:03:01;67254.41;;;9.56;93.88
3844;BME280;1937;51.444;6.484;2023-04-28T03:05:28;67257.88;;;9.27;95.53
3844;BME280;1937;51.444;6.484;2023-04-28T03:07:54;67245.94;;;9.30;95.95
3844;BME280;1937;51.444;6.484;2023-04-28T03:10:21;67250.66;;;9.39;96.30
3844;BME280;1937;51.444;6.484;2023-04-28T03:12:48;67295.94;;;9.47;95.80
3844;BME280;1937;51.444;6.484;2023-04-28T03:15:15;67263.28;;;9.41;96.32
3844;BME280;1937;51.444;6.484;2023-04-28T03:17:41;67255.50;;;9.36;96.79
3844;BME280;1937;51.444;6.484;2023-04-28T03:20:10;67270.31;;;9.52;96.98
3844;BME280;1937;51.444;6.484;2023-04-28T03:22:37;67271.97;;;9.49;96.56
3844;BME280;1937;51.444;6.484;2023-04-28T03:25:04;67247.28;;;9.40;97.17
3844;BME280;1937;51.444;6.484;2023-04-28T03:27:31;67273.38;;;9.48;98.65
3844;BME280;1937;51.444;6.484;2023-04-28T03:29:58;67304.09;;;9.27;100.00
3844;BME280;1937;51.444;6.484;2023-04-28T03:32:25;67366.19;;;9.50;100.00
3844;BME280;1937;51.444;6.484;2023-04-28T03:34:52;67324.84;;;9.36;100.00
3844;BME280;1937;51.444;6.484;2023-04-28T03:37:20;67329.72;;;9.38;100.00
3844;BME280;1937;51.444;6.484;2023-04-28T03:39:46;67368.25;;;9.38;100.00
3844;BME280;1937;51.444;6.484;2023-04-28T03:42:13;67429.53;;;9.47;100.00
3844;BME280;1937;51.444;6.484;2023-04-28T03:44:40;67403.44;;;9.56;100.00
3844;BME280;1937;51.444;6.484;2023-04-28T03:47:07;67371.75;;;9.41;100.00
3844;BME280;1937;51.444;6.484;2023-04-28T03:49:33;67447.53;;;9.63;100.00
3844;BME280;1937;51.444;6.484;2023-04-28T03:52:00;67441.38;;;9.55;100.00
3844;BME280;1937;51.444;6.484;2023-04-28T03:54:30;67502.22;;;9.57;100.00
3844;BME280;1937;51.444;6.484;2023-04-28T03:56:56;67493.16;;;9.73;100.00
3844;BME280;1937;51.444;6.484;2023-04-28T03:59:23;67452.91;;;9.61;100.00
3844;BME280;1937;51.444;6.484;2023-04-28T04:01:51;67483.97;;;9.70;100.00
3844;BME280;1937;51.444;6.484;2023-04-28T04:04:17;67546.69;;;9.77;100.00
3844;BME280;1937;51.444;6.484;2023-04-28T04:06:44;67565.06;;;9.96;100.00
3844;BME280;1937;51.444;6.484;2023-04-28T04:09:11;67559.47;;;10.00;100.00
3844;BME280;1937;51.444;6.484;2023-04-28T04:11:39;67648.38;;;10.14;100.00
3844;BME280;1937;51.444;6.484;2023-04-28T04:14:06;67614.25;;;10.09;100.00
3844;BME280;1937;51.444;6.484;2023-04-28T04:16:32;67603.63;;;10.07;100.00
3844;BME280;1937;51.444;6.484;2023-04-28T04:18:59;67625.34;;;10.19;100.00
3844;BME280;1937;51.444;6.484;2023-04-28T04:21:26;67613.31;;;10.17;100.00
3844;BME280;1937;51.444;6.484;2023-04-28T04:23:53;67630.84;;;10.10;100.00
3844;BME280;1937;51.444;6.484;2023-04-28T04:26:19;67655.38;;;10.20;100.00
3844;BME280;1937;51.444;6.484;2023-04-28T04:28:47;67653.75;;;10.23;100.00
3844;BME280;1937;51.444;6.484;2023-04-28T04:31:14;67662.84;;;10.34;100.00
3844;BME280;1937;51.444;6.484;2023-04-28T04:33:42;67659.69;;;10.33;100.00
3844;BME280;1937;51.444;6.484;2023-04-28T04:36:09;67681.03;;;10.43;100.00
3844;BME280;1937;51.444;6.484;2023-04-28T04:38:36;67655.88;;;10.16;100.00
3844;BME280;1937;51.444;6.484;2023-04-28T04:41:02;67634.22;;;10.20;100.00
3844;BME280;1937;51.444;6.484;2023-04-28T04:43:29;67666.50;;;10.19;100.00
3844;BME280;1937;51.444;6.484;2023-04-28T04:45:57;67632.72;;;10.05;100.00
3844;BME280;1937;51.444;6.484;2023-04-28T04:48:24;67730.69;;;10.37;100.00
3844;BME280;1937;51.444;6.484;2023-04-28T04:50:50;67750.88;;;10.45;100.00
3844;BME280;1937;51.444;6.484;2023-04-28T04:53:17;67721.75;;;10.47;100.00
3844;BME280;1937;51.444;6.484;2023-04-28T04:55:44;67736.94;;;10.49;100.00
3844;BME280;1937;51.444;6.484;2023-04-28T04:58:11;67737.53;;;10.49;100.00
3844;BME280;1937;51.444;6.484;2023-04-28T05:00:37;67762.00;;;10.44;100.00
3844;BME280;1937;51.444;6.484;2023-04-28T05:03:06;67760.81;;;10.54;100.00
3844;BME280;1937;51.444;6.484;2023-04-28T05:05:33;67716.94;;;10.49;100.00
3844;BME280;1937;51.444;6.484;2023-04-28T05:08:00;67745.97;;;10.43;100.00
3844;BME280;1937;51.444;6.484;2023-04-28T05:10:28;67775.06;;;10.64;100.00
3844;BME280;1937;51.444;6.484;2023-04-28T05:12:54;67765.91;;;10.76;100.00
3844;BME280;1937;51.444;6.484;2023-04-28T05:15:21;67811.59;;;10.60;100.00
3844;BME280;1937;51.444;6.484;2023-04-28T05:17:48;67797.53;;;10.70;100.00
3844;BME280;1937;51.444;6.484;2023-04-28T05:20:16;67840.56;;;10.98;100.00
3844;BME280;1937;51.444;6.484;2023-04-28T05:22:43;67891.13;;;11.18;100.00
3844;BME280;1937;51.444;6.484;2023-04-28T05:25:10;67837.09;;;11.22;100.00
3844;BME280;1937;51.444;6.484;2023-04-28T05:27:37;67871.91;;;11.17;100.00
3844;BME280;1937;51.444;6.484;2023-04-28T05:30:06;67901.03;;;11.37;100.00
3844;BME280;1937;51.444;6.484;2023-04-28T05:32:33;67908.31;;;11.41;100.00
3844;BME280;1937;51.444;6.484;2023-04-28T05:35:00;67927.13;;;11.62;99.77
3844;BME280;1937;51.444;6.484;2023-04-28T05:37:29;67876.09;;;11.36;100.00
3844;BME280;1937;51.444;6.484;2023-04-28T05:39:55;67826.13;;;11.06;100.00
3844;BME280;1937;51.444;6.484;2023-04-28T05:42:22;67791.25;;;10.96;100.00
3844;BME280;1937;51.444;6.484;2023-04-28T05:44:49;67805.44;;;10.90;100.00
3844;BME280;1937;51.444;6.484;2023-04-28T05:47:15;67826.53;;;10.86;100.00
3844;BME280;1937;51.444;6.484;2023-04-28T05:49:42;67835.19;;;10.89;100.00
3844;BME280;1937;51.444;6.484;2023-04-28T05:52:09;67773.41;;;10.67;100.00
3844;BME280;1937;51.444;6.484;2023-04-28T05:54:37;67764.91;;;10.57;100.00
3844;BME280;1937;51.444;6.484;2023-04-28T05:57:04;67780.38;;;10.46;100.00
3844;BME280;1937;51.444;6.484;2023-04-28T05:59:30;67875.94;;;10.82;100.00
3844;BME280;1937;51.444;6.484;2023-04-28T06:01:57;67858.13;;;10.91;100.00
3844;BME280;1937;51.444;6.484;2023-04-28T06:04:24;67847.22;;;10.91;100.00
3844;BME280;1937;51.444;6.484;2023-04-28T06:06:51;67849.56;;;10.93;100.00
3844;BME280;1937;51.444;6.484;2023-04-28T06:09:18;67890.63;;;11.22;100.00
3844;BME280;1937;51.444;6.484;2023-04-28T06:11:46;67898.84;;;11.18;100.00
3844;BME280;1937;51.444;6.484;2023-04-28T06:14:13;67931.63;;;11.35;100.00
3844;BME280;1937;51.444;6.484;2023-04-28T06:16:39;67890.41;;;11.13;100.00
3844;BME280;1937;51.444;6.484;2023-04-28T06:19:06;67856.94;;;11.13;100.00
3844;BME280;1937;51.444;6.484;2023-04-28T06:21:33;67898.34;;;11.33;99.19
3844;BME280;1937;51.444;6.484;2023-04-28T06:24:00;67895.72;;;11.55;98.52
3844;BME280;1937;51.444;6.484;2023-04-28T06:26:27;67912.72;;;11.59;97.79
3844;BME280;1937;51.444;6.484;2023-04-28T06:28:55;67890.56;;;11.55;95.11
3844;BME280;1937;51.444;6.484;2023-04-28T06:31:22;67935.91;;;11.70;95.68
3844;BME280;1937;51.444;6.484;2023-04-28T06:33:48;67865.91;;;11.67;95.20
3844;BME280;1937;51.444;6.484;2023-04-28T06:36:15;67908.22;;;11.86;95.31
3844;BME280;1937;51.444;6.484;2023-04-28T06:38:42;67926.22;;;11.97;94.36
3844;BME280;1937;51.444;6.484;2023-04-28T06:41:09;68041.69;;;12.41;93.20
3844;BME280;1937;51.444;6.484;2023-04-28T06:43:36;67954.59;;;12.46;90.82
3844;BME280;1937;51.444;6.484;2023-04-28T06:46:04;68007.56;;;12.67;91.11
3844;BME280;1937;51.444;6.484;2023-04-28T06:48:31;68002.06;;;12.65;90.47
3844;BME280;1937;51.444;6.484;2023-04-28T06:50:58;67954.53;;;12.57;88.55
3844;BME280;1937;51.444;6.484;2023-04-28T06:53:24;67971.44;;;12.56;90.79
3844;BME280;1937;51.444;6.484;2023-04-28T06:55:51;68027.56;;;12.89;89.54
3844;BME280;1937;51.444;6.484;2023-04-28T06:58:18;68062.59;;;13.15;88.25
3844;BME280;1937;51.444;6.484;2023-04-28T07:00:45;68120.53;;;13.49;87.58
3844;BME280;1937;51.444;6.484;2023-04-28T07:03:13;68009.50;;;13.16;86.68
3844;BME280;1937;51.444;6.484;2023-04-28T07:05:40;67945.69;;;12.72;87.47
3844;BME280;1937;51.444;6.484;2023-04-28T07:08:07;67915.50;;;12.70;87.79
3844;BME280;1937;51.444;6.484;2023-04-28T07:10:34;68031.13;;;13.08;87.98
3844;BME280;1937;51.444;6.484;2023-04-28T07:13:01;68015.63;;;13.35;86.80
3844;BME280;1937;51.444;6.484;2023-04-28T07:15:27;68008.16;;;13.22;84.01
3844;BME280;1937;51.444;6.484;2023-04-28T07:17:55;67999.00;;;13.23;85.05
3844;BME280;1937;51.444;6.484;2023-04-28T07:20:23;68047.19;;;13.46;85.55
3844;BME280;1937;51.444;6.484;2023-04-28T07:22:50;68116.44;;;13.73;84.59
3844;BME280;1937;51.444;6.484;2023-04-28T07:25:17;68024.50;;;13.47;83.70
3844;BME280;1937;51.444;6.484;2023-04-28T07:27:44;67959.50;;;13.29;83.79
3844;BME280;1937;51.444;6.484;2023-04-28T07:30:12;67967.94;;;13.07;84.23
3844;BME280;1937;51.444;6.484;2023-04-28T07:32:39;67919.06;;;13.05;84.32
3844;BME280;1937;51.444;6.484;2023-04-28T07:37:36;67967.91;;;13.18;85.38
3844;BME280;1937;51.444;6.484;2023-04-28T07:40:04;68049.28;;;13.50;85.79
3844;BME280;1937;51.444;6.484;2023-04-28T07:42:31;68081.16;;;13.91;84.23
3844;BME280;1937;51.444;6.484;2023-04-28T07:44:58;68107.84;;;14.01;82.71
3844;BME280;1937;51.444;6.484;2023-04-28T07:47:25;68199.94;;;14.43;82.86
3844;BME280;1937;51.444;6.484;2023-04-28T07:49:53;68095.31;;;14.08;81.53
3844;BME280;1937;51.444;6.484;2023-04-28T07:52:20;68163.13;;;14.31;81.07
3844;BME280;1937;51.444;6.484;2023-04-28T07:54:49;68114.69;;;14.41;79.86
3844;BME280;1937;51.444;6.484;2023-04-28T07:57:15;68074.34;;;14.10;81.61
3844;BME280;1937;51.444;6.484;2023-04-28T07:59:42;68129.38;;;14.00;82.61
3844;BME280;1937;51.444;6.484;2023-04-28T08:02:09;68121.72;;;14.20;82.07
3844;BME280;1937;51.444;6.484;2023-04-28T08:04:37;68186.56;;;14.51;81.90
3844;BME280;1937;51.444;6.484;2023-04-28T08:07:04;68193.88;;;14.71;80.62
3844;BME280;1937;51.444;6.484;2023-04-28T08:09:31;68097.84;;;14.19;81.63
3844;BME280;1937;51.444;6.484;2023-04-28T08:12:00;67986.06;;;13.65;82.94
3844;BME280;1937;51.444;6.484;2023-04-28T08:14:27;68034.22;;;13.73;84.00
3844;BME280;1937;51.444;6.484;2023-04-28T08:16:55;68062.56;;;13.96;84.22
3844;BME280;1937;51.444;6.484;2023-04-28T08:19:22;68095.13;;;13.99;83.82
3844;BME280;1937;51.444;6.484;2023-04-28T08:21:50;68101.34;;;14.07;83.89
3844;BME280;1937;51.444;6.484;2023-04-28T08:24:16;68141.16;;;14.41;83.19
3844;BME280;1937;51.444;6.484;2023-04-28T08:26:43;68133.19;;;14.32;83.18
3844;BME280;1937;51.444;6.484;2023-04-28T08:29:12;68134.09;;;14.19;83.69
3844;BME280;1937;51.444;6.484;2023-04-28T08:31:39;68147.25;;;14.44;83.19
3844;BME280;1937;51.444;6.484;2023-04-28T08:34:06;68176.78;;;14.52;83.49
3844;BME280;1937;51.444;6.484;2023-04-28T08:36:32;68204.97;;;14.65;83.13
3844;BME280;1937;51.444;6.484;2023-04-28T08:38:59;68245.22;;;14.75;83.82
3844;BME280;1937;51.444;6.484;2023-04-28T08:41:31;68156.16;;;14.29;87.40
3844;BME280;1937;51.444;6.484;2023-04-28T08:43:58;68275.72;;;14.74;86.98
3844;BME280;1937;51.444;6.484;2023-04-28T08:46:27;68265.22;;;14.81;85.49
3844;BME280;1937;51.444;6.484;2023-04-28T08:48:59;68231.38;;;14.61;87.18
3844;BME280;1937;51.444;6.484;2023-04-28T08:51:32;68356.44;;;15.04;86.85
3844;BME280;1937;51.444;6.484;2023-04-28T08:54:01;68329.66;;;15.05;84.75
3844;BME280;1937;51.444;6.484;2023-04-28T08:56:31;68407.88;;;15.50;84.30
3844;BME280;1937;51.444;6.484;2023-04-28T08:59:01;68393.47;;;15.51;83.15
3844;BME280;1937;51.444;6.484;2023-04-28T09:01:30;68532.91;;;15.95;82.74
3844;BME280;1937;51.444;6.484;2023-04-28T09:03:59;68534.97;;;16.11;81.11
3844;BME280;1937;51.444;6.484;2023-04-28T09:06:26;68395.97;;;15.47;82.95
3844;BME280;1937;51.444;6.484;2023-04-28T09:09:17;68318.63;;;15.00;85.02
3844;BME280;1937;51.444;6.484;2023-04-28T09:11:50;68303.53;;;14.96;86.99
3844;BME280;1937;51.444;6.484;2023-04-28T09:14:20;68310.53;;;15.13;86.28
3844;BME280;1937;51.444;6.484;2023-04-28T09:16:49;68326.63;;;14.98;86.80
3844;BME280;1937;51.444;6.484;2023-04-28T09:19:16;68310.56;;;15.02;86.57
3844;BME280;1937;51.444;6.484;2023-04-28T09:21:48;68323.44;;;14.98;87.56
3844;BME280;1937;51.444;6.484;2023-04-28T09:24:27;68451.69;;;15.37;86.60
3844;BME280;1937;51.444;6.484;2023-04-28T09:26:55;68338.03;;;15.06;86.58
3844;BME280;1937;51.444;6.484;2023-04-28T09:29:22;68381.56;;;15.21;86.86
3844;BME280;1937;51.444;6.484;2023-04-28T09:31:50;68440.47;;;15.38;87.54
3844;BME280;1937;51.444;6.484;2023-04-28T09:34:17;68338.06;;;15.22;86.01
3844;BME280;1937;51.444;6.484;2023-04-28T09:36:44;68361.22;;;15.12;86.82
3844;BME280;1937;51.444;6.484;2023-04-28T09:39:11;68370.75;;;15.14;88.02
3844;BME280;1937;51.444;6.484;2023-04-28T09:41:39;68349.47;;;15.02;87.56
3844;BME280;1937;51.444;6.484;2023-04-28T09:44:11;68419.84;;;15.32;87.14
3844;BME280;1937;51.444;6.484;2023-04-28T09:46:38;68510.06;;;15.80;86.15
3844;BME280;1937;51.444;6.484;2023-04-28T09:49:06;68554.28;;;15.96;84.89
3844;BME280;1937;51.444;6.484;2023-04-28T09:51:34;68474.22;;;15.76;84.74
3844;BME280;1937;51.444;6.484;2023-04-28T09:54:02;68472.72;;;15.62;85.99
3844;BME280;1937;51.444;6.484;2023-04-28T09:56:30;68420.75;;;15.46;87.28
3844;BME280;1937;51.444;6.484;2023-04-28T09:58:58;68496.25;;;15.55;88.29
3844;BME280;1937;51.444;6.484;2023-04-28T10:01:27;68480.13;;;15.70;87.36
3844;BME280;1937;51.444;6.484;2023-04-28T10:03:57;68563.53;;;15.84;87.30
3844;BME280;1937;51.444;6.484;2023-04-28T10:06:33;68585.44;;;15.96;86.92
3844;BME280;1937;51.444;6.484;2023-04-28T10:09:02;68519.47;;;15.88;86.81
3844;BME280;1937;51.444;6.484;2023-04-28T10:11:29;68525.50;;;15.87;87.45
3844;BME280;1937;51.444;6.484;2023-04-28T10:13:56;68506.00;;;15.66;88.85
3844;BME280;1937;51.444;6.484;2023-04-28T10:16:23;68549.63;;;15.70;89.15
3844;BME280;1937;51.444;6.484;2023-04-28T10:18:50;68547.38;;;15.72;88.94
3844;BME280;1937;51.444;6.484;2023-04-28T10:21:19;68600.09;;;15.82;88.80
3844;BME280;1937;51.444;6.484;2023-04-28T10:24:09;68561.88;;;15.76;90.47
3844;BME280;1937;51.444;6.484;2023-04-28T10:27:07;68529.38;;;15.54;91.75
3844;BME280;1937;51.444;6.484;2023-04-28T10:29:34;68580.69;;;15.65;92.71
3844;BME280;1937;51.444;6.484;2023-04-28T10:32:20;68454.06;;;15.28;93.87
3844;BME280;1937;51.444;6.484;2023-04-28T10:34:48;68587.53;;;15.40;95.23
3844;BME280;1937;51.444;6.484;2023-04-28T10:37:15;68610.53;;;15.60;94.61
3844;BME280;1937;51.444;6.484;2023-04-28T10:42:52;68608.53;;;15.49;95.37
3844;BME280;1937;51.444;6.484;2023-04-28T10:46:00;68538.84;;;15.29;96.30
3844;BME280;1937;51.444;6.484;2023-04-28T10:51:33;68637.78;;;15.32;99.40
3844;BME280;1937;51.444;6.484;2023-04-28T10:54:15;68625.88;;;15.28;98.88
3844;BME280;1937;51.444;6.484;2023-04-28T10:57:17;68641.31;;;15.35;98.94
3844;BME280;1937;51.444;6.484;2023-04-28T10:59:46;68613.50;;;15.18;99.92
3844;BME280;1937;51.444;6.484;2023-04-28T11:02:41;68666.69;;;15.34;100.00
3844;BME280;1937;51.444;6.484;2023-04-28T11:05:11;68708.56;;;15.37;100.00
3844;BME280;1937;51.444;6.484;2023-04-28T11:07:37;68757.50;;;15.45;100.00
3844;BME280;1937;51.444;6.484;2023-04-28T11:10:05;68794.00;;;15.61;100.00
3844;BME280;1937;51.444;6.484;2023-04-28T11:12:32;68815.03;;;15.81;100.00
3844;BME280;1937;51.444;6.484;2023-04-28T11:15:10;68888.81;;;15.89;100.00
3844;BME280;1937;51.444;6.484;2023-04-28T11:17:39;68805.34;;;15.86;99.75
3844;BME280;1937;51.444;6.484;2023-04-28T11:20:11;68846.66;;;15.66;100.00
3844;BME280;1937;51.444;6.484;2023-04-28T11:22:39;68857.28;;;15.86;100.00
3844;BME280;1937;51.444;6.484;2023-04-28T11:25:07;68923.50;;;15.81;100.00
3844;BME280;1937;51.444;6.484;2023-04-28T11:27:33;68951.09;;;16.07;100.00
3844;BME280;1937;51.444;6.484;2023-04-28T11:30:00;68993.50;;;16.16;100.00
3844;BME280;1937;51.444;6.484;2023-04-28T11:32:29;69022.72;;;16.28;100.00
3844;BME280;1937;51.444;6.484;2023-04-28T11:34:56;69032.91;;;16.41;99.10
3844;BME280;1937;51.444;6.484;2023-04-28T11:37:23;68983.53;;;16.41;98.57
3844;BME280;1937;51.444;6.484;2023-04-28T11:39:50;69056.13;;;16.54;98.14
3844;BME280;1937;51.444;6.484;2023-04-28T11:42:17;69008.25;;;16.58;96.24
3844;BME280;1937;51.444;6.484;2023-04-28T11:44:49;69165.75;;;16.97;96.59
3844;BME280;1937;51.444;6.484;2023-04-28T11:47:29;69067.22;;;16.88;93.96
3844;BME280;1937;51.444;6.484;2023-04-28T11:49:57;69076.47;;;16.98;92.95
3844;BME280;1937;51.444;6.484;2023-04-28T11:52:24;69019.56;;;16.90;92.57
3844;BME280;1937;51.444;6.484;2023-04-28T11:54:52;69018.38;;;16.77;94.39
3844;BME280;1937;51.444;6.484;2023-04-28T11:57:20;69011.53;;;16.92;92.64
3844;BME280;1937;51.444;6.484;2023-04-28T11:59:48;69073.44;;;17.13;91.83
3844;BME280;1937;51.444;6.484;2023-04-28T12:02:17;69116.63;;;17.28;90.65
3844;BME280;1937;51.444;6.484;2023-04-28T12:04:51;69090.94;;;17.19;91.38
3844;BME280;1937;51.444;6.484;2023-04-28T12:07:18;69081.56;;;17.16;90.63
3844;BME280;1937;51.444;6.484;2023-04-28T12:09:46;69117.47;;;17.38;89.60
3844;BME280;1937;51.444;6.484;2023-04-28T12:12:15;69065.16;;;17.29;90.26
3844;BME280;1937;51.444;6.484;2023-04-28T12:14:55;69271.75;;;17.89;89.71
3844;BME280;1937;51.444;6.484;2023-04-28T12:17:24;69345.97;;;18.53;86.34
3844;BME280;1937;51.444;6.484;2023-04-28T12:19:53;69371.19;;;18.72;84.27
3844;BME280;1937;51.444;6.484;2023-04-28T12:22:19;69324.94;;;18.66;85.17
3844;BME280;1937;51.444;6.484;2023-04-28T12:25:02;69242.56;;;18.45;83.67
3844;BME280;1937;51.444;6.484;2023-04-28T12:27:28;69369.53;;;18.86;83.10
3844;BME280;1937;51.444;6.484;2023-04-28T12:29:56;69421.66;;;19.04;82.77
3844;BME280;1937;51.444;6.484;2023-04-28T12:32:36;69386.91;;;19.05;80.29
3844;BME280;1937;51.444;6.484;2023-04-28T12:35:06;69249.72;;;18.62;82.32
3844;BME280;1937;51.444;6.484;2023-04-28T12:37:33;69291.34;;;18.79;81.30
3844;BME280;1937;51.444;6.484;2023-04-28T12:39:59;69329.34;;;18.90;80.98
3844;BME280;1937;51.444;6.484;2023-04-28T12:42:29;69290.91;;;18.84;80.89
3844;BME280;1937;51.444;6.484;2023-04-28T12:44:56;69219.38;;;18.76;80.99
3844;BME280;1937;51.444;6.484;2023-04-28T12:47:23;69172.78;;;18.56;82.39
3844;BME280;1937;51.444;6.484;2023-04-28T12:49:49;69213.56;;;18.75;81.19
3844;BME280;1937;51.444;6.484;2023-04-28T12:52:19;69224.72;;;18.69;81.47
3844;BME280;1937;51.444;6.484;2023-04-28T12:54:46;69253.41;;;18.80;80.48
3844;BME280;1937;51.444;6.484;2023-04-28T12:57:13;69190.19;;;18.69;81.11
3844;BME280;1937;51.444;6.484;2023-04-28T12:59:39;69197.22;;;18.59;81.82
3844;BME280;1937;51.444;6.484;2023-04-28T13:02:06;69247.94;;;18.94;80.39
3844;BME280;1937;51.444;6.484;2023-04-28T13:04:33;69317.59;;;19.17;79.89
3844;BME280;1937;51.444;6.484;2023-04-28T13:07:00;69432.53;;;19.40;79.66
3844;BME280;1937;51.444;6.484;2023-04-28T13:09:28;69485.81;;;19.76;78.73
3844;BME280;1937;51.444;6.484;2023-04-28T13:11:55;69526.72;;;19.95;77.59
3844;BME280;1937;51.444;6.484;2023-04-28T13:14:21;69514.25;;;20.18;75.80
3844;BME280;1937;51.444;6.484;2023-04-28T13:16:48;69600.00;;;20.40;75.88
3844;BME280;1937;51.444;6.484;2023-04-28T13:19:16;69682.88;;;20.81;72.96
3844;BME280;1937;51.444;6.484;2023-04-28T13:21:42;69584.44;;;20.56;72.76
3844;BME280;1937;51.444;6.484;2023-04-28T13:24:11;69616.94;;;20.74;72.33
3844;BME280;1937;51.444;6.484;2023-04-28T13:26:40;69660.28;;;21.07;71.53
3844;BME280;1937;51.444;6.484;2023-04-28T13:29:08;69625.03;;;20.95;71.94
3844;BME280;1937;51.444;6.484;2023-04-28T13:31:35;69567.31;;;20.57;72.46
3844;BME280;1937;51.444;6.484;2023-04-28T13:34:02;69547.69;;;20.62;73.63
3844;BME280;1937;51.444;6.484;2023-04-28T13:36:30;69563.75;;;20.65;72.62